createdAt,value
2018-08-04T00:01:33.054Z,23.00
2018-08-04T00:04:01.516Z,21.10
2018-08-04T00:06:33.074Z,21.77
2018-08-04T00:09:01.584Z,22.03
2018-08-04T00:11:29.977Z,21.37
2018-08-04T00:13:58.377Z,22.57
2018-08-04T00:16:26.909Z,22.43
2018-08-04T00:18:55.362Z,21.30
2018-08-04T00:21:23.730Z,21.20
2018-08-04T00:23:52.431Z,23.57
2018-08-04T00:26:20.884Z,22.40
2018-08-04T00:28:49.321Z,22.83
2018-08-04T00:31:17.624Z,24.00
2018-08-04T00:33:46.064Z,22.50
2018-08-04T00:36:14.518Z,22.70
2018-08-04T00:38:42.902Z,23.10
2018-08-04T00:41:11.264Z,21.43
2018-08-04T00:43:39.684Z,22.10
2018-08-04T00:46:08.134Z,21.77
2018-08-04T00:48:36.543Z,22.23
2018-08-04T00:51:05.045Z,22.07
2018-08-04T00:53:33.422Z,21.63
2018-08-04T00:56:01.872Z,23.13
2018-08-04T00:58:30.272Z,21.80
2018-08-04T01:00:58.854Z,23.20
2018-08-04T01:03:27.232Z,22.90
2018-08-04T01:05:55.837Z,23.30
2018-08-04T01:08:24.238Z,21.47
2018-08-04T01:10:52.650Z,24.83
2018-08-04T01:13:21.010Z,21.97
2018-08-04T01:15:49.374Z,22.50
2018-08-04T01:18:17.806Z,23.20
2018-08-04T01:20:46.199Z,22.83
2018-08-04T01:23:14.549Z,23.23
2018-08-04T01:25:43.033Z,24.37
2018-08-04T01:28:11.375Z,23.47
2018-08-04T01:30:39.800Z,22.50
2018-08-04T01:33:08.219Z,21.40
2018-08-04T01:35:36.679Z,22.40
2018-08-04T01:38:05.079Z,22.67
2018-08-04T01:40:33.437Z,23.40
2018-08-04T01:43:01.919Z,25.00
2018-08-04T01:45:30.310Z,25.23
2018-08-04T01:47:58.723Z,23.53
2018-08-04T01:50:27.172Z,22.87
2018-08-04T01:52:55.534Z,24.27
2018-08-04T01:55:24.025Z,22.90
2018-08-04T01:57:52.397Z,23.23
2018-08-04T02:00:20.828Z,25.03
2018-08-04T02:02:49.204Z,24.47
2018-08-04T02:05:17.544Z,25.53
2018-08-04T02:07:45.924Z,22.33
2018-08-04T02:10:14.236Z,24.40
2018-08-04T02:12:42.565Z,24.17
2018-08-04T02:15:10.854Z,23.33
2018-08-04T02:17:39.235Z,24.17
2018-08-04T02:20:07.657Z,24.30
2018-08-04T02:22:36.065Z,23.97
2018-08-04T02:25:05.570Z,25.10
2018-08-04T02:27:33.989Z,24.97
2018-08-04T02:30:02.873Z,25.57
2018-08-04T02:32:31.329Z,24.20
2018-08-04T02:34:59.753Z,24.80
2018-08-04T02:37:28.136Z,24.73
2018-08-04T02:39:56.596Z,24.73
2018-08-04T02:42:25.051Z,23.50
2018-08-04T02:44:53.368Z,24.97
2018-08-04T02:47:21.752Z,24.97
2018-08-04T02:49:50.159Z,24.97
2018-08-04T02:52:18.537Z,23.37
2018-08-04T02:54:46.995Z,24.57
2018-08-04T02:57:15.369Z,25.60
2018-08-04T02:59:43.809Z,24.20
2018-08-04T03:02:12.327Z,24.47
2018-08-04T03:04:40.705Z,23.23
2018-08-04T03:07:09.183Z,22.60
2018-08-04T03:09:37.687Z,23.47
2018-08-04T03:12:06.300Z,24.50
2018-08-04T03:14:34.695Z,24.40
2018-08-04T03:17:03.128Z,25.87
2018-08-04T03:19:31.559Z,25.53
2018-08-04T03:22:00.002Z,25.10
2018-08-04T03:24:28.353Z,25.37
2018-08-04T03:26:56.746Z,25.00
2018-08-04T03:29:25.214Z,27.60
2018-08-04T03:31:53.642Z,25.30
2018-08-04T03:34:22.097Z,25.73
2018-08-04T03:36:50.541Z,25.37
2018-08-04T03:39:18.983Z,25.03
2018-08-04T03:41:47.420Z,24.27
2018-08-04T03:44:15.866Z,25.00
2018-08-04T03:46:44.348Z,25.53
2018-08-04T03:49:12.733Z,24.33
2018-08-04T03:51:41.159Z,23.13
2018-08-04T03:54:09.588Z,25.90
2018-08-04T03:56:37.949Z,23.93
2018-08-04T03:59:06.391Z,23.90
2018-08-04T04:01:34.863Z,22.80
2018-08-04T04:04:03.219Z,23.60
2018-08-04T04:06:31.634Z,25.07
2018-08-04T04:09:00.096Z,24.67
2018-08-04T04:11:28.456Z,23.80
2018-08-04T04:13:56.863Z,24.03
2018-08-04T04:16:25.417Z,23.30
2018-08-04T04:18:53.889Z,23.00
2018-08-04T04:21:22.246Z,23.17
2018-08-04T04:23:50.611Z,22.63
2018-08-04T04:26:19.113Z,23.07
2018-08-04T04:28:47.562Z,22.80
2018-08-04T04:31:16.021Z,22.93
2018-08-04T04:33:44.487Z,22.93
2018-08-04T04:36:12.959Z,23.50
2018-08-04T04:38:41.383Z,22.00
2018-08-04T04:41:09.835Z,21.40
2018-08-04T04:43:38.289Z,22.63
2018-08-04T04:46:06.717Z,23.10
2018-08-04T04:48:35.151Z,22.10
2018-08-04T04:51:03.548Z,21.53
2018-08-04T04:53:32.000Z,21.70
2018-08-04T04:56:00.493Z,21.80
2018-08-04T04:58:28.859Z,21.23
2018-08-04T05:00:57.254Z,20.90
2018-08-04T05:03:25.588Z,22.00
2018-08-04T05:05:54.084Z,20.60
2018-08-04T05:08:22.480Z,20.80
2018-08-04T05:10:50.830Z,20.53
2018-08-04T05:13:19.241Z,21.17
2018-08-04T05:15:47.612Z,20.43
2018-08-04T05:18:16.059Z,20.80
2018-08-04T05:20:44.482Z,20.33
2018-08-04T05:23:12.903Z,21.73
2018-08-04T05:25:41.348Z,20.63
2018-08-04T05:28:09.782Z,19.83
2018-08-04T05:30:38.117Z,21.03
2018-08-04T05:33:06.638Z,21.20
2018-08-04T05:35:35.021Z,20.60
2018-08-04T05:38:03.458Z,20.47
2018-08-04T05:40:31.854Z,19.93
2018-08-04T05:43:00.364Z,19.23
2018-08-04T05:45:28.788Z,19.53
2018-08-04T05:47:57.304Z,20.33
2018-08-04T05:50:25.705Z,21.23
2018-08-04T05:52:54.037Z,20.70
2018-08-04T05:55:22.509Z,19.23
2018-08-04T05:57:50.960Z,20.80
2018-08-04T06:00:19.413Z,19.03
2018-08-04T06:02:47.895Z,18.97
2018-08-04T06:05:16.311Z,19.77
2018-08-04T06:07:44.782Z,17.53
2018-08-04T06:10:13.181Z,17.07
2018-08-04T06:12:41.661Z,16.77
2018-08-04T06:15:10.092Z,18.23
2018-08-04T06:17:38.668Z,18.80
2018-08-04T06:20:07.139Z,19.40
2018-08-04T06:22:35.569Z,18.70
2018-08-04T06:25:04.091Z,18.30
2018-08-04T06:27:32.435Z,19.43
2018-08-04T06:30:00.917Z,18.90
2018-08-04T06:32:29.395Z,18.80
2018-08-04T06:34:57.822Z,19.07
2018-08-04T06:37:26.242Z,18.60
2018-08-04T06:39:54.870Z,17.87
2018-08-04T06:42:23.466Z,18.83
2018-08-04T06:44:51.917Z,18.60
2018-08-04T06:47:20.305Z,18.87
2018-08-04T06:49:48.679Z,17.83
2018-08-04T06:52:17.155Z,17.60
2018-08-04T06:54:45.513Z,17.93
2018-08-04T06:57:13.981Z,17.20
2018-08-04T06:59:42.379Z,17.10
2018-08-04T07:02:10.821Z,17.10
2018-08-04T07:04:39.224Z,16.07
2018-08-04T07:07:08.274Z,17.73
2018-08-04T07:09:36.705Z,16.90
2018-08-04T07:12:05.209Z,16.57
2018-08-04T07:14:33.655Z,18.07
2018-08-04T07:17:02.173Z,16.70
2018-08-04T07:19:30.650Z,17.70
2018-08-04T07:21:59.092Z,15.70
2018-08-04T07:24:27.465Z,16.23
2018-08-04T07:26:55.838Z,15.73
2018-08-04T07:29:24.326Z,16.60
2018-08-04T07:31:52.837Z,17.10
2018-08-04T07:34:21.395Z,17.43
2018-08-04T07:36:49.702Z,16.53
2018-08-04T07:39:18.119Z,16.10
2018-08-04T07:41:46.530Z,16.27
2018-08-04T07:44:14.925Z,16.30
2018-08-04T07:46:43.369Z,15.37
2018-08-04T07:49:11.787Z,15.93
2018-08-04T07:51:40.170Z,15.93
2018-08-04T07:54:08.539Z,15.70
2018-08-04T07:56:37.017Z,16.57
2018-08-04T07:59:05.441Z,14.50
2018-08-04T08:01:33.955Z,18.43
2018-08-04T08:04:02.285Z,15.00
2018-08-04T08:06:30.685Z,16.00
2018-08-04T08:08:59.127Z,14.70
2018-08-04T08:11:27.683Z,15.53
2018-08-04T08:13:56.027Z,15.30
2018-08-04T08:16:24.409Z,15.47
2018-08-04T08:18:52.902Z,15.63
2018-08-04T08:21:21.339Z,14.07
2018-08-04T08:23:49.750Z,16.63
2018-08-04T08:26:18.235Z,14.30
2018-08-04T08:28:47.398Z,15.00
2018-08-04T08:31:15.851Z,14.60
2018-08-04T08:33:44.295Z,16.70
2018-08-04T08:36:12.773Z,15.20
2018-08-04T08:38:41.203Z,14.90
2018-08-04T08:41:09.664Z,16.07
2018-08-04T08:43:38.089Z,14.20
2018-08-04T08:46:06.553Z,15.63
2018-08-04T08:48:34.968Z,15.83
2018-08-04T08:51:03.358Z,15.30
2018-08-04T08:53:32.040Z,15.80
2018-08-04T08:56:00.207Z,14.57
2018-08-04T08:58:28.705Z,14.27
2018-08-04T09:00:57.027Z,16.20
2018-08-04T09:03:25.344Z,15.77
2018-08-04T09:05:53.766Z,15.03
2018-08-04T09:08:22.202Z,16.90
2018-08-04T09:10:50.655Z,16.67
2018-08-04T09:13:19.054Z,16.60
2018-08-04T09:15:47.546Z,15.53
2018-08-04T09:18:15.925Z,15.07
2018-08-04T09:20:44.371Z,15.07
2018-08-04T09:23:12.799Z,14.17
2018-08-04T09:25:41.195Z,12.67
2018-08-04T09:28:09.659Z,12.50
2018-08-04T09:30:38.100Z,12.27
2018-08-04T09:33:06.946Z,12.47
2018-08-04T09:35:35.334Z,12.00
2018-08-04T09:38:03.750Z,12.00
2018-08-04T09:40:32.744Z,11.80
2018-08-04T09:43:01.125Z,13.10
2018-08-04T09:45:29.523Z,11.40
2018-08-04T09:47:57.937Z,11.87
2018-08-04T09:50:26.387Z,12.17
2018-08-04T09:52:55.614Z,12.10
2018-08-04T09:55:24.018Z,11.90
2018-08-04T09:57:52.404Z,12.53
2018-08-04T10:00:26.157Z,10.73
2018-08-04T10:02:54.531Z,10.77
2018-08-04T10:05:23.258Z,11.30
2018-08-04T10:07:51.639Z,11.20
2018-08-04T10:10:20.011Z,10.00
2018-08-04T10:12:48.510Z,10.17
2018-08-04T10:15:16.927Z,9.27
2018-08-04T10:17:45.371Z,10.17
2018-08-04T10:20:13.874Z,10.13
2018-08-04T10:22:42.265Z,10.33
2018-08-04T10:25:12.179Z,9.70
2018-08-04T10:27:40.583Z,10.50
2018-08-04T10:30:10.601Z,12.90
2018-08-04T10:32:39.170Z,11.30
2018-08-04T10:35:08.107Z,9.93
2018-08-04T10:37:38.487Z,9.53
2018-08-04T10:40:07.219Z,8.80
2018-08-04T10:42:35.702Z,10.30
2018-08-04T10:45:04.720Z,10.67
2018-08-04T10:47:33.097Z,9.87
2018-08-04T10:50:01.499Z,10.30
2018-08-04T10:52:29.945Z,10.57
2018-08-04T10:54:58.326Z,9.60
2018-08-04T10:57:26.748Z,10.33
2018-08-04T10:59:55.234Z,8.83
2018-08-04T11:02:23.628Z,8.80
2018-08-04T11:04:52.012Z,8.57
2018-08-04T11:07:20.451Z,8.80
2018-08-04T11:09:48.816Z,8.23
2018-08-04T11:12:17.132Z,7.70
2018-08-04T11:14:45.432Z,8.17
2018-08-04T11:17:13.898Z,7.80
2018-08-04T11:19:42.336Z,8.13
2018-08-04T11:22:11.562Z,8.40
2018-08-04T11:24:39.969Z,8.43
2018-08-04T11:27:08.342Z,8.40
2018-08-04T11:29:36.707Z,7.70
2018-08-04T11:32:05.075Z,7.50
2018-08-04T11:34:33.534Z,8.17
2018-08-04T11:37:01.916Z,7.50
2018-08-04T11:39:30.282Z,7.70
2018-08-04T11:41:58.721Z,6.90
2018-08-04T11:44:27.145Z,7.10
2018-08-04T11:46:55.552Z,7.00
2018-08-04T11:49:24.025Z,7.57
2018-08-04T11:51:52.499Z,7.80
2018-08-04T11:54:20.887Z,7.53
2018-08-04T11:56:49.408Z,7.60
2018-08-04T11:59:17.718Z,7.00
2018-08-04T12:01:46.187Z,7.80
2018-08-04T12:04:14.624Z,8.00
2018-08-04T12:06:43.024Z,8.70
2018-08-04T12:09:13.040Z,9.27
2018-08-04T12:11:41.999Z,8.83
2018-08-04T12:14:10.836Z,10.33
2018-08-04T12:16:39.559Z,10.70
2018-08-04T12:19:07.959Z,10.20
2018-08-04T12:21:36.341Z,10.50
2018-08-04T12:24:04.800Z,10.20
2018-08-04T12:26:33.147Z,10.23
2018-08-04T12:29:01.600Z,10.47
2018-08-04T12:31:30.094Z,10.60
2018-08-04T12:33:58.440Z,9.67
2018-08-04T12:36:26.777Z,9.50
2018-08-04T12:38:55.126Z,9.50
2018-08-04T12:41:23.550Z,10.40
2018-08-04T12:43:52.014Z,8.00
2018-08-04T12:46:20.447Z,7.87
2018-08-04T12:48:48.795Z,7.83
2018-08-04T12:51:17.200Z,7.07
2018-08-04T12:53:45.537Z,7.50
2018-08-04T12:56:13.906Z,7.20
2018-08-04T12:58:42.364Z,8.10
2018-08-04T13:01:10.848Z,7.23
2018-08-04T13:03:39.365Z,7.07
2018-08-04T13:06:07.758Z,8.10
2018-08-04T13:08:36.200Z,6.70
2018-08-04T13:11:04.522Z,7.30
2018-08-04T13:13:32.583Z,6.60
2018-08-04T13:16:00.995Z,6.83
2018-08-04T13:18:29.369Z,6.83
2018-08-04T13:20:57.743Z,7.20
2018-08-04T13:23:26.177Z,7.17
2018-08-04T13:25:54.581Z,6.20
2018-08-04T13:28:22.994Z,6.83
2018-08-04T13:30:51.325Z,7.13
2018-08-04T13:33:20.254Z,6.43
2018-08-04T13:35:48.879Z,6.77
2018-08-04T13:38:17.271Z,6.73
2018-08-04T13:40:45.654Z,7.10
2018-08-04T13:43:14.066Z,7.50
2018-08-04T13:45:42.474Z,7.23
2018-08-04T13:48:10.906Z,7.60
2018-08-04T13:50:39.321Z,7.33
2018-08-04T13:53:07.730Z,6.80
2018-08-04T13:55:36.132Z,6.70
2018-08-04T13:58:04.473Z,8.20
2018-08-04T14:00:32.953Z,6.13
2018-08-04T14:03:01.360Z,7.20
2018-08-04T14:05:29.768Z,6.80
2018-08-04T14:07:58.191Z,9.43
2018-08-04T14:10:26.562Z,8.50
2018-08-04T14:12:55.017Z,8.23
2018-08-04T14:15:23.384Z,8.47
2018-08-04T14:17:51.814Z,8.77
2018-08-04T14:20:20.225Z,9.03
2018-08-04T14:22:48.643Z,8.47
2018-08-04T14:25:17.003Z,9.50
2018-08-04T14:27:45.478Z,8.47
2018-08-04T14:30:13.895Z,8.53
2018-08-04T14:32:48.379Z,8.43
2018-08-04T14:35:16.785Z,8.63
2018-08-04T14:37:45.245Z,8.27
2018-08-04T14:40:13.598Z,9.40
2018-08-04T14:42:42.132Z,8.50
2018-08-04T14:45:10.531Z,7.20
2018-08-04T14:47:38.883Z,8.17
2018-08-04T14:50:07.301Z,8.60
2018-08-04T14:52:35.692Z,8.60
2018-08-04T14:55:04.126Z,8.00
2018-08-04T14:57:32.536Z,8.90
2018-08-04T15:00:00.987Z,7.67
2018-08-04T15:02:29.430Z,7.63
2018-08-04T15:04:57.858Z,7.13
2018-08-04T15:07:26.364Z,6.70
2018-08-04T15:09:54.816Z,7.77
2018-08-04T15:12:23.191Z,8.80
2018-08-04T15:14:51.657Z,8.37
2018-08-04T15:17:20.221Z,8.80
2018-08-04T15:19:48.662Z,8.53
2018-08-04T15:22:17.119Z,7.77
2018-08-04T15:24:45.572Z,8.93
2018-08-04T15:27:13.967Z,9.47
2018-08-04T15:29:42.361Z,9.13
2018-08-04T15:32:10.824Z,8.80
2018-08-04T15:34:39.151Z,9.03
2018-08-04T15:37:07.531Z,8.60
2018-08-04T15:39:35.970Z,7.73
2018-08-04T15:42:04.445Z,8.50
2018-08-04T15:44:32.867Z,8.73
2018-08-04T15:47:01.249Z,9.13
2018-08-04T15:49:29.627Z,11.40
2018-08-04T15:51:58.073Z,8.50
2018-08-04T15:54:26.513Z,9.27
2018-08-04T15:56:54.935Z,8.13
2018-08-04T15:59:23.348Z,9.00
2018-08-04T16:01:51.777Z,8.30
2018-08-04T16:04:20.277Z,8.20
2018-08-04T16:06:49.016Z,8.77
2018-08-04T16:09:23.786Z,8.83
2018-08-04T16:11:52.116Z,9.63
2018-08-04T16:14:20.539Z,8.90
2018-08-04T16:16:48.995Z,9.30
2018-08-04T16:19:17.448Z,9.33
2018-08-04T16:21:45.840Z,8.20
2018-08-04T16:24:14.294Z,8.73
2018-08-04T16:26:42.635Z,8.93
2018-08-04T16:29:11.122Z,8.20
2018-08-04T16:31:39.476Z,10.40
2018-08-04T16:34:07.970Z,8.17
2018-08-04T16:36:40.779Z,8.70
2018-08-04T16:39:10.272Z,7.87
2018-08-04T16:41:38.929Z,8.90
2018-08-04T16:44:07.350Z,9.40
2018-08-04T16:46:35.779Z,8.80
2018-08-04T16:49:04.198Z,7.93
2018-08-04T16:51:32.609Z,9.67
2018-08-04T16:54:01.037Z,8.23
2018-08-04T16:56:29.387Z,9.00
2018-08-04T16:58:57.834Z,9.87
2018-08-04T17:01:26.187Z,8.60
2018-08-04T17:03:54.910Z,8.73
2018-08-04T17:06:23.294Z,8.93
2018-08-04T17:08:51.748Z,8.13
2018-08-04T17:11:20.130Z,8.10
2018-08-04T17:13:48.465Z,8.30
2018-08-04T17:16:16.820Z,9.03
2018-08-04T17:18:45.241Z,8.27
2018-08-04T17:21:13.682Z,8.60
2018-08-04T17:23:42.077Z,8.33
2018-08-04T17:26:10.543Z,8.50
2018-08-04T17:28:39.058Z,9.73
2018-08-04T17:31:07.564Z,10.37
2018-08-04T17:33:35.918Z,9.70
2018-08-04T17:36:04.347Z,9.90
2018-08-04T17:38:32.804Z,10.60
2018-08-04T17:41:01.217Z,10.03
2018-08-04T17:43:29.651Z,11.37
2018-08-04T17:45:58.015Z,11.30
2018-08-04T17:48:26.486Z,10.20
2018-08-04T17:50:54.880Z,10.70
2018-08-04T17:53:23.223Z,11.03
2018-08-04T17:55:51.815Z,11.10
2018-08-04T17:58:20.192Z,10.70
2018-08-04T18:00:48.784Z,10.63
2018-08-04T18:03:17.230Z,9.40
2018-08-04T18:05:45.641Z,9.97
2018-08-04T18:08:14.057Z,11.30
2018-08-04T18:10:42.561Z,10.70
2018-08-04T18:13:11.002Z,10.37
2018-08-04T18:15:39.433Z,11.17
2018-08-04T18:18:07.784Z,10.83
2018-08-04T18:20:36.149Z,11.57
2018-08-04T18:23:04.612Z,11.20
2018-08-04T18:25:33.014Z,12.53
2018-08-04T18:28:01.389Z,11.50
2018-08-04T18:30:29.739Z,11.33
2018-08-04T18:32:58.384Z,11.33
2018-08-04T18:35:26.900Z,11.03
2018-08-04T18:37:55.373Z,11.07
2018-08-04T18:40:23.732Z,10.40
2018-08-04T18:42:52.239Z,11.90
2018-08-04T18:45:20.599Z,11.80
2018-08-04T18:47:49.092Z,11.47
2018-08-04T18:50:17.467Z,11.20
2018-08-04T18:52:45.853Z,13.37
2018-08-04T18:55:14.217Z,13.70
2018-08-04T18:57:42.674Z,11.87
2018-08-04T19:00:11.179Z,12.37
2018-08-04T19:02:39.543Z,11.10
2018-08-04T19:05:07.997Z,11.40
2018-08-04T19:07:36.427Z,11.47
2018-08-04T19:10:04.859Z,11.27
2018-08-04T19:12:33.288Z,10.90
2018-08-04T19:15:01.765Z,13.73
2018-08-04T19:17:30.156Z,12.67
2018-08-04T19:19:58.584Z,12.13
2018-08-04T19:22:27.005Z,13.00
2018-08-04T19:24:55.349Z,14.43
2018-08-04T19:27:23.777Z,13.03
2018-08-04T19:29:52.315Z,14.17
2018-08-04T19:32:20.702Z,14.10
2018-08-04T19:34:49.114Z,13.93
2018-08-04T19:37:17.528Z,15.37
2018-08-04T19:39:45.883Z,16.17
2018-08-04T19:42:14.247Z,14.87
2018-08-04T19:44:42.772Z,15.90
2018-08-04T19:47:11.217Z,14.67
2018-08-04T19:49:39.645Z,16.07
2018-08-04T19:52:07.995Z,16.00
2018-08-04T19:54:36.311Z,14.30
2018-08-04T19:57:04.813Z,12.97
2018-08-04T19:59:33.241Z,15.70
2018-08-04T20:02:01.615Z,13.90
2018-08-04T20:04:30.051Z,12.67
2018-08-04T20:06:58.427Z,13.67
2018-08-04T20:09:26.784Z,13.23
2018-08-04T20:11:55.166Z,13.57
2018-08-04T20:14:23.579Z,14.20
2018-08-04T20:16:52.001Z,13.77
2018-08-04T20:19:20.363Z,14.13
2018-08-04T20:21:48.793Z,13.90
2018-08-04T20:24:17.170Z,14.60
2018-08-04T20:26:45.637Z,14.47
2018-08-04T20:29:14.046Z,14.13
2018-08-04T20:31:42.502Z,14.50
2018-08-04T20:34:10.942Z,15.50
2018-08-04T20:36:39.294Z,14.10
2018-08-04T20:39:09.365Z,15.93
2018-08-04T20:41:37.786Z,15.40
2018-08-04T20:44:06.324Z,15.57
2018-08-04T20:46:34.707Z,17.50
2018-08-04T20:49:03.118Z,16.70
2018-08-04T20:51:31.542Z,16.60
2018-08-04T20:54:00.047Z,16.67
2018-08-04T20:56:28.457Z,15.50
2018-08-04T20:58:56.807Z,16.60
2018-08-04T21:01:36.453Z,16.30
2018-08-04T21:04:04.913Z,16.37
2018-08-04T21:06:33.422Z,17.17
2018-08-04T21:09:01.718Z,15.33
2018-08-04T21:11:30.072Z,15.90
2018-08-04T21:13:58.532Z,15.10
2018-08-04T21:16:26.927Z,15.33
2018-08-04T21:18:55.435Z,17.50
2018-08-04T21:21:23.847Z,17.10
2018-08-04T21:23:52.268Z,16.50
2018-08-04T21:26:20.751Z,16.47
2018-08-04T21:28:49.352Z,17.70
2018-08-04T21:31:17.740Z,16.37
2018-08-04T21:33:46.120Z,19.20
2018-08-04T21:36:14.497Z,17.60
2018-08-04T21:38:42.867Z,16.00
2018-08-04T21:41:11.258Z,17.30
2018-08-04T21:43:39.761Z,18.40
2018-08-04T21:46:08.148Z,16.00
2018-08-04T21:48:36.553Z,16.93
2018-08-04T21:51:04.983Z,15.53
2018-08-04T21:53:33.351Z,15.77
2018-08-04T21:56:01.769Z,16.23
2018-08-04T21:58:30.129Z,15.83
2018-08-04T22:01:03.851Z,17.53
2018-08-04T22:03:32.247Z,17.53
2018-08-04T22:06:00.663Z,16.93
2018-08-04T22:08:40.331Z,17.87
2018-08-04T22:11:08.640Z,18.23
2018-08-04T22:13:37.661Z,17.97
2018-08-04T22:16:06.213Z,19.53
2018-08-04T22:18:34.657Z,17.33
2018-08-04T22:21:03.021Z,18.17
2018-08-04T22:23:31.718Z,17.60
2018-08-04T22:26:00.138Z,17.37
2018-08-04T22:28:28.605Z,18.90
2018-08-04T22:30:56.945Z,17.27
2018-08-04T22:33:25.365Z,17.73
2018-08-04T22:35:53.819Z,16.57
2018-08-04T22:38:22.307Z,16.20
2018-08-04T22:40:50.716Z,17.57
2018-08-04T22:43:19.168Z,16.87
2018-08-04T22:46:06.458Z,16.50
2018-08-04T22:48:35.269Z,15.97
2018-08-04T22:51:03.743Z,16.03
2018-08-04T22:53:32.630Z,17.30
2018-08-04T22:56:01.081Z,16.30
2018-08-04T22:58:29.525Z,16.97
2018-08-04T23:00:57.991Z,16.80
2018-08-04T23:03:26.390Z,15.90
2018-08-04T23:05:54.976Z,16.10
2018-08-04T23:08:23.336Z,15.97
2018-08-04T23:10:51.718Z,16.10
2018-08-04T23:13:20.143Z,17.00
2018-08-04T23:15:48.624Z,17.90
2018-08-04T23:18:16.951Z,16.63
2018-08-04T23:20:45.379Z,15.60
2018-08-04T23:23:14.371Z,15.30
2018-08-04T23:25:42.765Z,15.97
2018-08-04T23:28:11.310Z,16.30
2018-08-04T23:30:39.693Z,14.77
2018-08-04T23:33:08.135Z,15.30
2018-08-04T23:35:36.528Z,16.13
2018-08-04T23:38:04.975Z,16.23
2018-08-04T23:40:33.410Z,16.23
2018-08-04T23:43:02.009Z,15.00
2018-08-04T23:45:30.423Z,16.93
2018-08-04T23:47:58.774Z,16.30
2018-08-04T23:50:27.133Z,16.50
2018-08-04T23:52:55.481Z,15.47
2018-08-04T23:55:23.966Z,16.17
2018-08-04T23:57:52.390Z,16.17
